Ship Status Report: callsign S-L-120

sailwx.info

Track history (hours):
 
Tides and Currents Weather Stations Pressure Air Temp Water Temp Dewpoint Dewpoint Depression Visibility Wind Speed Wind Dir Waves Ship Positions

Callsign S-L-120 (name unknown)

Last reported at 2017-Nov-03 23:29 UTC. Time now 2017-Dec-17 21:41 UTC.
Position N 34°05' W 119°11'.
Warning: this ship's position is 43 days out of date.

Date/timePositionNaut miles runAvg speedWind from/ knotsBaromVisibWave heightAir tempDewpointWater temp
2017-Nov-03 23:29N 34°05' W 119°11'68 2.2
2017-Nov-02 17:05N 32°58' W 119°10'217.2
2017-Nov-02 16:59N 32°59' W 119°10'1616.8
2017-Nov-02 16:02N 33°15' W 119°10'116.6
2017-Nov-02 15:59N 33°16' W 119°10'713.9
2017-Nov-02 15:30N 33°23' W 119°11'815.5
2017-Nov-02 15:00N 33°30' W 119°11'816.3
2017-Nov-02 14:30N 33°39' W 119°12'1020.2
2017-Nov-02 14:00N 33°49' W 119°12'1020.1
2017-Nov-02 13:30N 33°59' W 119°13'1018.2
2017-Nov-02 12:57N 34°09' W 119°13'0 0.0
2017-Nov-01 23:30N 34°09' W 119°13'715.1
2017-Nov-01 23:00N 34°03' W 119°18'817.0
2017-Nov-01 22:30N 33°58' W 119°26'816.8
2017-Nov-01 22:00N 33°52' W 119°33'2 0.7
2017-Nov-01 19:34N 33°52' W 119°35'0 3.6
2017-Nov-01 19:30N 33°52' W 119°35'  
2017-Oct-27 00:26N 34°09' W 119°13'815.0
2017-Oct-26 23:54N 34°02' W 119°09'820.0
2017-Oct-26 23:31N 33°55' W 119°05'1519.5
2017-Oct-26 22:46N 33°42' W 118°57'519.5
2017-Oct-26 22:29N 33°37' W 118°54'1020.2
2017-Oct-26 21:59N 33°28' W 118°49'1020.1
2017-Oct-26 21:30N 33°19' W 118°43'1020.2
2017-Oct-26 21:00N 33°10' W 118°38'1019.7
2017-Oct-26 20:30N 33°01' W 118°33'1 1.6
2017-Oct-26 19:57N 33°01' W 118°33'0 0.0
2017-Oct-26 19:27N 33°01' W 118°33'0 0.0
2017-Oct-26 18:58N 33°01' W 118°33'0 0.0
2017-Oct-26 18:29N 33°01' W 118°33'0 0.2
2017-Oct-26 17:36N 33°00' W 118°33'0 0.0
2017-Oct-26 17:25N 33°00' W 118°33'0 0.0
2017-Oct-26 16:58N 33°00' W 118°33'0 0.0
2017-Oct-26 16:29N 33°00' W 118°33'3 5.6
2017-Oct-26 16:00N 33°03' W 118°33'1019.6
2017-Oct-26 15:30N 33°12' W 118°39'1019.5
2017-Oct-26 15:00N 33°20' W 118°44'1019.4
2017-Oct-26 14:31N 33°29' W 118°49'1019.3
2017-Oct-26 14:00N 33°38' W 118°55'1019.5
2017-Oct-26 13:30N 33°46' W 119°00'919.2
2017-Oct-26 13:00N 33°55' W 119°06'1019.4
2017-Oct-26 12:30N 34°03' W 119°11'6 0.4
2017-Oct-25 21:55N 34°09' W 119°13'0 0.1
2017-Oct-25 21:29N 34°09' W 119°12'0 0.0
2017-Oct-25 21:00N 34°09' W 119°12'0 0.0
2017-Oct-25 20:30N 34°09' W 119°12'0 0.0
2017-Oct-25 20:00N 34°09' W 119°12'0 0.0
2017-Oct-25 19:30N 34°09' W 119°12'0 0.0
2017-Oct-25 19:00N 34°09' W 119°12'0 0.0
2017-Oct-25 18:30N 34°09' W 119°12'0 0.0
2017-Oct-25 18:00N 34°09' W 119°12'0 0.0
2017-Oct-25 17:30N 34°09' W 119°12'0 0.9
2017-Oct-25 17:00N 34°09' W 119°13'1219.1
2017-Oct-25 16:24N 33°57' W 119°12'820.1
2017-Oct-25 16:00N 33°49' W 119°12'1020.3
2017-Oct-25 15:30N 33°39' W 119°11'4 7.7
2017-Oct-25 14:59N 33°35' W 119°10'3 6.9
2017-Oct-25 14:30N 33°38' W 119°10'918.2
2017-Oct-25 14:00N 33°47' W 119°10'918.5
2017-Oct-25 13:30N 33°57' W 119°11'918.6
2017-Oct-25 13:00N 34°06' W 119°13'3 0.3
2017-Oct-25 02:49N 34°09' W 119°13'3 8.5
2017-Oct-25 02:30N 34°07' W 119°15'1019.5
2017-Oct-25 01:59N 34°02' W 119°25'917.7
2017-Oct-25 01:29N 33°56' W 119°33'611.6
2017-Oct-25 01:01N 33°51' W 119°37'0 0.2
2017-Oct-25 00:31N 33°51' W 119°37'0 0.2
2017-Oct-25 00:00N 33°51' W 119°37'0 0.7
2017-Oct-24 23:31N 33°51' W 119°37'  
Track history (hours):
 
Tides and Currents Weather Stations Pressure Air Temp Water Temp Dewpoint Dewpoint Depression Visibility Wind Speed Wind Dir Waves Ship Positions

Callsign S-L-120 (name unknown)

Last reported at 2017-Nov-03 23:29 UTC. Time now 2017-Dec-17 21:41 UTC.
Position N 34°05' W 119°11'.
Warning: this ship's position is 43 days out of date.

Date/timePositionNaut miles runAvg speedWind from/ knotsBaromVisibWave heightAir tempDewpointWater temp
2017-Nov-03 23:29N 34°05' W 119°11'68 2.2
2017-Nov-02 17:05N 32°58' W 119°10'217.2
2017-Nov-02 16:59N 32°59' W 119°10'1616.8
2017-Nov-02 16:02N 33°15' W 119°10'116.6
2017-Nov-02 15:59N 33°16' W 119°10'713.9
2017-Nov-02 15:30N 33°23' W 119°11'815.5
2017-Nov-02 15:00N 33°30' W 119°11'816.3
2017-Nov-02 14:30N 33°39' W 119°12'1020.2
2017-Nov-02 14:00N 33°49' W 119°12'1020.1
2017-Nov-02 13:30N 33°59' W 119°13'1018.2
2017-Nov-02 12:57N 34°09' W 119°13'0 0.0
2017-Nov-01 23:30N 34°09' W 119°13'715.1
2017-Nov-01 23:00N 34°03' W 119°18'817.0
2017-Nov-01 22:30N 33°58' W 119°26'816.8
2017-Nov-01 22:00N 33°52' W 119°33'2 0.7
2017-Nov-01 19:34N 33°52' W 119°35'0 3.6
2017-Nov-01 19:30N 33°52' W 119°35'  
2017-Oct-27 00:26N 34°09' W 119°13'815.0
2017-Oct-26 23:54N 34°02' W 119°09'820.0
2017-Oct-26 23:31N 33°55' W 119°05'1519.5
2017-Oct-26 22:46N 33°42' W 118°57'519.5
2017-Oct-26 22:29N 33°37' W 118°54'1020.2
2017-Oct-26 21:59N 33°28' W 118°49'1020.1
2017-Oct-26 21:30N 33°19' W 118°43'1020.2
2017-Oct-26 21:00N 33°10' W 118°38'1019.7
2017-Oct-26 20:30N 33°01' W 118°33'1 1.6
2017-Oct-26 19:57N 33°01' W 118°33'0 0.0
2017-Oct-26 19:27N 33°01' W 118°33'0 0.0
2017-Oct-26 18:58N 33°01' W 118°33'0 0.0
2017-Oct-26 18:29N 33°01' W 118°33'0 0.2
2017-Oct-26 17:36N 33°00' W 118°33'0 0.0
2017-Oct-26 17:25N 33°00' W 118°33'0 0.0
2017-Oct-26 16:58N 33°00' W 118°33'0 0.0
2017-Oct-26 16:29N 33°00' W 118°33'3 5.6
2017-Oct-26 16:00N 33°03' W 118°33'1019.6
2017-Oct-26 15:30N 33°12' W 118°39'1019.5
2017-Oct-26 15:00N 33°20' W 118°44'1019.4
2017-Oct-26 14:31N 33°29' W 118°49'1019.3
2017-Oct-26 14:00N 33°38' W 118°55'1019.5
2017-Oct-26 13:30N 33°46' W 119°00'919.2
2017-Oct-26 13:00N 33°55' W 119°06'1019.4
2017-Oct-26 12:30N 34°03' W 119°11'6 0.4
2017-Oct-25 21:55N 34°09' W 119°13'0 0.1
2017-Oct-25 21:29N 34°09' W 119°12'0 0.0
2017-Oct-25 21:00N 34°09' W 119°12'0 0.0
2017-Oct-25 20:30N 34°09' W 119°12'0 0.0
2017-Oct-25 20:00N 34°09' W 119°12'0 0.0
2017-Oct-25 19:30N 34°09' W 119°12'0 0.0
2017-Oct-25 19:00N 34°09' W 119°12'0 0.0
2017-Oct-25 18:30N 34°09' W 119°12'0 0.0
2017-Oct-25 18:00N 34°09' W 119°12'0 0.0
2017-Oct-25 17:30N 34°09' W 119°12'0 0.9
2017-Oct-25 17:00N 34°09' W 119°13'1219.1
2017-Oct-25 16:24N 33°57' W 119°12'820.1
2017-Oct-25 16:00N 33°49' W 119°12'1020.3
2017-Oct-25 15:30N 33°39' W 119°11'4 7.7
2017-Oct-25 14:59N 33°35' W 119°10'3 6.9
2017-Oct-25 14:30N 33°38' W 119°10'918.2
2017-Oct-25 14:00N 33°47' W 119°10'918.5
2017-Oct-25 13:30N 33°57' W 119°11'918.6
2017-Oct-25 13:00N 34°06' W 119°13'3 0.3
2017-Oct-25 02:49N 34°09' W 119°13'3 8.5
2017-Oct-25 02:30N 34°07' W 119°15'1019.5
2017-Oct-25 01:59N 34°02' W 119°25'917.7
2017-Oct-25 01:29N 33°56' W 119°33'611.6
2017-Oct-25 01:01N 33°51' W 119°37'0 0.2
2017-Oct-25 00:31N 33°51' W 119°37'0 0.2
2017-Oct-25 00:00N 33°51' W 119°37'0 0.7
2017-Oct-24 23:31N 33°51' W 119°37'  

Dump ship's entire track history